sensor_id;sensor_type;location;lat;lon;timestamp;P1;durP1;ratioP1;P2;durP2;ratioP2
67041;SDS011;53949;47.790;18.750;2022-11-18T00:00:34;46.92;;;22.92;;
67041;SDS011;53949;47.790;18.750;2022-11-18T00:03:38;44.05;;;22.75;;
67041;SDS011;53949;47.790;18.750;2022-11-18T00:06:41;39.42;;;21.12;;
67041;SDS011;53949;47.790;18.750;2022-11-18T00:09:44;34.55;;;19.90;;
67041;SDS011;53949;47.790;18.750;2022-11-18T00:12:47;35.65;;;20.70;;
67041;SDS011;53949;47.790;18.750;2022-11-18T00:16:10;38.58;;;20.17;;
67041;SDS011;53949;47.790;18.750;2022-11-18T00:19:15;34.47;;;18.77;;
67041;SDS011;53949;47.790;18.750;2022-11-18T00:22:19;34.95;;;19.05;;
67041;SDS011;53949;47.790;18.750;2022-11-18T00:25:32;32.17;;;18.92;;
67041;SDS011;53949;47.790;18.750;2022-11-18T00:28:35;34.30;;;19.77;;
67041;SDS011;53949;47.790;18.750;2022-11-18T00:31:39;33.55;;;18.73;;
67041;SDS011;53949;47.790;18.750;2022-11-18T00:34:43;34.17;;;19.23;;
67041;SDS011;53949;47.790;18.750;2022-11-18T00:37:46;34.38;;;18.02;;
67041;SDS011;53949;47.790;18.750;2022-11-18T00:41:03;30.15;;;19.00;;
67041;SDS011;53949;47.790;18.750;2022-11-18T00:44:07;32.65;;;19.58;;
67041;SDS011;53949;47.790;18.750;2022-11-18T00:47:11;31.00;;;19.30;;
67041;SDS011;53949;47.790;18.750;2022-11-18T00:50:14;34.63;;;18.55;;
67041;SDS011;53949;47.790;18.750;2022-11-18T00:53:18;36.03;;;19.00;;
67041;SDS011;53949;47.790;18.750;2022-11-18T00:56:22;37.30;;;20.48;;
67041;SDS011;53949;47.790;18.750;2022-11-18T00:59:25;34.22;;;19.33;;
67041;SDS011;53949;47.790;18.750;2022-11-18T01:02:29;33.65;;;18.60;;
67041;SDS011;53949;47.790;18.750;2022-11-18T01:05:32;32.58;;;18.98;;
67041;SDS011;53949;47.790;18.750;2022-11-18T01:08:35;32.40;;;19.52;;
67041;SDS011;53949;47.790;18.750;2022-11-18T01:11:38;32.33;;;19.15;;
67041;SDS011;53949;47.790;18.750;2022-11-18T01:15:00;32.13;;;19.30;;
67041;SDS011;53949;47.790;18.750;2022-11-18T01:18:03;34.25;;;20.12;;
67041;SDS011;53949;47.790;18.750;2022-11-18T01:21:07;33.63;;;18.67;;
67041;SDS011;53949;47.790;18.750;2022-11-18T01:24:11;32.22;;;19.50;;
67041;SDS011;53949;47.790;18.750;2022-11-18T01:27:14;35.70;;;19.92;;
67041;SDS011;53949;47.790;18.750;2022-11-18T01:30:17;37.05;;;20.67;;
67041;SDS011;53949;47.790;18.750;2022-11-18T01:33:20;32.25;;;18.87;;
67041;SDS011;53949;47.790;18.750;2022-11-18T01:36:24;32.00;;;18.73;;
67041;SDS011;53949;47.790;18.750;2022-11-18T01:39:29;29.67;;;17.85;;
67041;SDS011;53949;47.790;18.750;2022-11-18T01:42:33;31.23;;;18.77;;
67041;SDS011;53949;47.790;18.750;2022-11-18T01:45:36;31.67;;;18.27;;
67041;SDS011;53949;47.790;18.750;2022-11-18T01:48:40;29.57;;;17.47;;
67041;SDS011;53949;47.790;18.750;2022-11-18T01:51:48;29.75;;;18.23;;
67041;SDS011;53949;47.790;18.750;2022-11-18T01:54:54;32.70;;;17.27;;
67041;SDS011;53949;47.790;18.750;2022-11-18T01:58:10;28.45;;;16.42;;
67041;SDS011;53949;47.790;18.750;2022-11-18T02:01:17;29.80;;;16.80;;
67041;SDS011;53949;47.790;18.750;2022-11-18T02:04:22;28.08;;;15.90;;
67041;SDS011;53949;47.790;18.750;2022-11-18T02:07:25;30.55;;;18.05;;
67041;SDS011;53949;47.790;18.750;2022-11-18T02:10:28;32.08;;;18.60;;
67041;SDS011;53949;47.790;18.750;2022-11-18T02:13:31;32.78;;;18.15;;
67041;SDS011;53949;47.790;18.750;2022-11-18T02:29:29;29.92;;;18.35;;
67041;SDS011;53949;47.790;18.750;2022-11-18T02:32:47;31.60;;;18.02;;
67041;SDS011;53949;47.790;18.750;2022-11-18T02:36:08;30.45;;;18.27;;
67041;SDS011;53949;47.790;18.750;2022-11-18T02:39:21;31.23;;;17.67;;
67041;SDS011;53949;47.790;18.750;2022-11-18T02:42:39;30.73;;;17.17;;
67041;SDS011;53949;47.790;18.750;2022-11-18T02:45:45;31.27;;;17.40;;
67041;SDS011;53949;47.790;18.750;2022-11-18T02:48:51;31.00;;;17.42;;
67041;SDS011;53949;47.790;18.750;2022-11-18T02:51:55;27.45;;;16.15;;
67041;SDS011;53949;47.790;18.750;2022-11-18T02:54:59;28.17;;;15.57;;
67041;SDS011;53949;47.790;18.750;2022-11-18T02:58:04;28.75;;;16.65;;
67041;SDS011;53949;47.790;18.750;2022-11-18T03:01:13;27.47;;;15.87;;
67041;SDS011;53949;47.790;18.750;2022-11-18T03:04:22;26.83;;;15.30;;
67041;SDS011;53949;47.790;18.750;2022-11-18T03:07:30;31.00;;;16.33;;
67041;SDS011;53949;47.790;18.750;2022-11-18T03:10:42;27.77;;;15.38;;
67041;SDS011;53949;47.790;18.750;2022-11-18T03:17:11;27.80;;;16.37;;
67041;SDS011;53949;47.790;18.750;2022-11-18T03:20:21;28.92;;;15.27;;
67041;SDS011;53949;47.790;18.750;2022-11-18T03:26:38;24.02;;;13.77;;
67041;SDS011;53949;47.790;18.750;2022-11-18T03:29:52;25.12;;;15.00;;
67041;SDS011;53949;47.790;18.750;2022-11-18T03:33:02;26.62;;;14.73;;
67041;SDS011;53949;47.790;18.750;2022-11-18T03:36:09;27.60;;;15.30;;
67041;SDS011;53949;47.790;18.750;2022-11-18T03:39:14;27.00;;;14.93;;
67041;SDS011;53949;47.790;18.750;2022-11-18T03:45:33;26.92;;;14.77;;
67041;SDS011;53949;47.790;18.750;2022-11-18T03:48:40;27.33;;;15.38;;
67041;SDS011;53949;47.790;18.750;2022-11-18T03:51:50;27.62;;;14.68;;
67041;SDS011;53949;47.790;18.750;2022-11-18T03:54:58;27.90;;;14.60;;
67041;SDS011;53949;47.790;18.750;2022-11-18T03:58:13;26.98;;;14.95;;
67041;SDS011;53949;47.790;18.750;2022-11-18T04:01:23;25.73;;;14.30;;
67041;SDS011;53949;47.790;18.750;2022-11-18T04:04:30;27.42;;;15.20;;
67041;SDS011;53949;47.790;18.750;2022-11-18T04:08:18;32.38;;;16.23;;
67041;SDS011;53949;47.790;18.750;2022-11-18T04:11:02;26.98;;;14.45;;
67041;SDS011;53949;47.790;18.750;2022-11-18T04:14:37;28.45;;;14.55;;
67041;SDS011;53949;47.790;18.750;2022-11-18T04:17:41;24.20;;;13.65;;
67041;SDS011;53949;47.790;18.750;2022-11-18T04:20:45;30.55;;;14.60;;
67041;SDS011;53949;47.790;18.750;2022-11-18T04:23:48;29.15;;;14.10;;
67041;SDS011;53949;47.790;18.750;2022-11-18T04:26:51;29.42;;;15.10;;
67041;SDS011;53949;47.790;18.750;2022-11-18T04:29:54;31.90;;;14.95;;
67041;SDS011;53949;47.790;18.750;2022-11-18T04:32:57;24.83;;;14.02;;
67041;SDS011;53949;47.790;18.750;2022-11-18T04:36:00;29.02;;;14.65;;
67041;SDS011;53949;47.790;18.750;2022-11-18T04:39:05;24.67;;;14.53;;
67041;SDS011;53949;47.790;18.750;2022-11-18T04:42:09;28.38;;;13.90;;
67041;SDS011;53949;47.790;18.750;2022-11-18T04:45:12;29.77;;;14.60;;
67041;SDS011;53949;47.790;18.750;2022-11-18T04:48:15;25.12;;;13.80;;
67041;SDS011;53949;47.790;18.750;2022-11-18T04:51:18;27.02;;;14.75;;
67041;SDS011;53949;47.790;18.750;2022-11-18T04:54:21;28.70;;;14.32;;
67041;SDS011;53949;47.790;18.750;2022-11-18T04:57:25;28.20;;;15.07;;
67041;SDS011;53949;47.790;18.750;2022-11-18T05:00:28;27.90;;;14.13;;
67041;SDS011;53949;47.790;18.750;2022-11-18T05:03:31;27.08;;;14.60;;
67041;SDS011;53949;47.790;18.750;2022-11-18T05:06:35;24.35;;;13.98;;
67041;SDS011;53949;47.790;18.750;2022-11-18T05:09:38;25.77;;;13.45;;
67041;SDS011;53949;47.790;18.750;2022-11-18T05:12:41;26.60;;;14.10;;
67041;SDS011;53949;47.790;18.750;2022-11-18T05:15:54;27.40;;;13.38;;
67041;SDS011;53949;47.790;18.750;2022-11-18T05:18:57;24.92;;;12.95;;
67041;SDS011;53949;47.790;18.750;2022-11-18T05:22:00;24.85;;;14.77;;
67041;SDS011;53949;47.790;18.750;2022-11-18T05:25:03;23.23;;;12.65;;
67041;SDS011;53949;47.790;18.750;2022-11-18T05:28:07;26.33;;;13.40;;
67041;SDS011;53949;47.790;18.750;2022-11-18T05:31:14;28.08;;;13.62;;
67041;SDS011;53949;47.790;18.750;2022-11-18T05:34:18;29.15;;;15.27;;
67041;SDS011;53949;47.790;18.750;2022-11-18T05:37:21;27.70;;;14.87;;
67041;SDS011;53949;47.790;18.750;2022-11-18T05:40:25;31.33;;;16.42;;
67041;SDS011;53949;47.790;18.750;2022-11-18T05:43:28;27.40;;;15.80;;
67041;SDS011;53949;47.790;18.750;2022-11-18T05:46:31;31.05;;;16.85;;
67041;SDS011;53949;47.790;18.750;2022-11-18T05:49:35;27.35;;;16.10;;
67041;SDS011;53949;47.790;18.750;2022-11-18T05:52:38;31.17;;;16.20;;
67041;SDS011;53949;47.790;18.750;2022-11-18T05:55:43;31.15;;;17.77;;
67041;SDS011;53949;47.790;18.750;2022-11-18T05:58:47;31.33;;;16.27;;
67041;SDS011;53949;47.790;18.750;2022-11-18T06:01:58;26.42;;;15.55;;
67041;SDS011;53949;47.790;18.750;2022-11-18T06:05:04;31.10;;;16.17;;
67041;SDS011;53949;47.790;18.750;2022-11-18T06:08:08;30.42;;;16.25;;
67041;SDS011;53949;47.790;18.750;2022-11-18T06:11:13;32.33;;;16.67;;
67041;SDS011;53949;47.790;18.750;2022-11-18T06:14:37;33.47;;;16.70;;
67041;SDS011;53949;47.790;18.750;2022-11-18T06:17:48;29.48;;;16.42;;
67041;SDS011;53949;47.790;18.750;2022-11-18T06:20:52;29.85;;;15.98;;
67041;SDS011;53949;47.790;18.750;2022-11-18T06:24:01;32.28;;;17.67;;
67041;SDS011;53949;47.790;18.750;2022-11-18T06:27:04;30.35;;;16.00;;
67041;SDS011;53949;47.790;18.750;2022-11-18T06:30:08;34.53;;;16.15;;
67041;SDS011;53949;47.790;18.750;2022-11-18T06:33:11;26.77;;;15.13;;
67041;SDS011;53949;47.790;18.750;2022-11-18T06:36:14;30.80;;;16.58;;
67041;SDS011;53949;47.790;18.750;2022-11-18T06:39:17;29.75;;;15.80;;
67041;SDS011;53949;47.790;18.750;2022-11-18T06:42:22;29.48;;;15.35;;
67041;SDS011;53949;47.790;18.750;2022-11-18T06:45:43;27.83;;;14.43;;
67041;SDS011;53949;47.790;18.750;2022-11-18T06:49:11;27.85;;;15.30;;
67041;SDS011;53949;47.790;18.750;2022-11-18T06:52:14;30.95;;;17.02;;
67041;SDS011;53949;47.790;18.750;2022-11-18T06:55:17;31.12;;;16.50;;
67041;SDS011;53949;47.790;18.750;2022-11-18T06:58:21;30.55;;;15.63;;
67041;SDS011;53949;47.790;18.750;2022-11-18T07:01:28;28.35;;;16.20;;
67041;SDS011;53949;47.790;18.750;2022-11-18T07:04:32;29.23;;;14.98;;
67041;SDS011;53949;47.790;18.750;2022-11-18T07:07:41;28.85;;;15.75;;
67041;SDS011;53949;47.790;18.750;2022-11-18T07:10:50;31.10;;;16.08;;
67041;SDS011;53949;47.790;18.750;2022-11-18T07:13:54;27.83;;;15.95;;
67041;SDS011;53949;47.790;18.750;2022-11-18T07:16:57;29.37;;;16.65;;
67041;SDS011;53949;47.790;18.750;2022-11-18T07:20:00;26.45;;;14.85;;
67041;SDS011;53949;47.790;18.750;2022-11-18T07:23:03;26.33;;;14.73;;
67041;SDS011;53949;47.790;18.750;2022-11-18T07:26:07;22.67;;;12.68;;
67041;SDS011;53949;47.790;18.750;2022-11-18T07:29:11;20.37;;;11.93;;
67041;SDS011;53949;47.790;18.750;2022-11-18T07:32:14;21.95;;;13.13;;
67041;SDS011;53949;47.790;18.750;2022-11-18T07:35:17;22.50;;;13.02;;
67041;SDS011;53949;47.790;18.750;2022-11-18T07:38:20;23.02;;;12.73;;
67041;SDS011;53949;47.790;18.750;2022-11-18T07:41:24;24.63;;;14.35;;
67041;SDS011;53949;47.790;18.750;2022-11-18T07:44:29;23.83;;;13.82;;
67041;SDS011;53949;47.790;18.750;2022-11-18T07:47:32;27.67;;;14.45;;
67041;SDS011;53949;47.790;18.750;2022-11-18T07:50:36;29.45;;;14.25;;
67041;SDS011;53949;47.790;18.750;2022-11-18T07:53:39;25.85;;;14.27;;
67041;SDS011;53949;47.790;18.750;2022-11-18T07:56:43;24.55;;;13.95;;
67041;SDS011;53949;47.790;18.750;2022-11-18T07:59:46;30.00;;;15.43;;
67041;SDS011;53949;47.790;18.750;2022-11-18T08:02:49;29.10;;;15.40;;
67041;SDS011;53949;47.790;18.750;2022-11-18T08:05:57;31.10;;;14.50;;
67041;SDS011;53949;47.790;18.750;2022-11-18T08:09:01;30.80;;;14.25;;
67041;SDS011;53949;47.790;18.750;2022-11-18T08:12:05;29.77;;;14.18;;
67041;SDS011;53949;47.790;18.750;2022-11-18T08:15:08;46.30;;;15.10;;
67041;SDS011;53949;47.790;18.750;2022-11-18T08:18:12;32.67;;;14.82;;
67041;SDS011;53949;47.790;18.750;2022-11-18T08:21:16;108.32;;;17.77;;
67041;SDS011;53949;47.790;18.750;2022-11-18T08:24:20;34.53;;;14.80;;
67041;SDS011;53949;47.790;18.750;2022-11-18T08:27:23;33.15;;;14.20;;
67041;SDS011;53949;47.790;18.750;2022-11-18T08:30:26;33.03;;;13.82;;
67041;SDS011;53949;47.790;18.750;2022-11-18T08:33:29;29.90;;;15.40;;
67041;SDS011;53949;47.790;18.750;2022-11-18T08:36:34;34.83;;;16.33;;
67041;SDS011;53949;47.790;18.750;2022-11-18T08:39:38;34.22;;;17.65;;
67041;SDS011;53949;47.790;18.750;2022-11-18T08:42:41;32.92;;;15.73;;
67041;SDS011;53949;47.790;18.750;2022-11-18T08:45:44;31.95;;;14.55;;
67041;SDS011;53949;47.790;18.750;2022-11-18T08:48:47;34.70;;;16.20;;
67041;SDS011;53949;47.790;18.750;2022-11-18T08:51:50;32.25;;;16.20;;
67041;SDS011;53949;47.790;18.750;2022-11-18T08:54:53;27.77;;;15.52;;
67041;SDS011;53949;47.790;18.750;2022-11-18T08:57:56;28.30;;;15.10;;
67041;SDS011;53949;47.790;18.750;2022-11-18T09:01:04;27.48;;;14.25;;
67041;SDS011;53949;47.790;18.750;2022-11-18T09:04:08;30.33;;;15.00;;
67041;SDS011;53949;47.790;18.750;2022-11-18T09:10:17;57.45;;;17.83;;
67041;SDS011;53949;47.790;18.750;2022-11-18T09:13:20;25.98;;;14.32;;
67041;SDS011;53949;47.790;18.750;2022-11-18T09:16:43;26.00;;;13.50;;
67041;SDS011;53949;47.790;18.750;2022-11-18T09:19:46;31.95;;;15.20;;
67041;SDS011;53949;47.790;18.750;2022-11-18T09:22:50;29.90;;;14.18;;
67041;SDS011;53949;47.790;18.750;2022-11-18T09:26:00;29.40;;;13.10;;
67041;SDS011;53949;47.790;18.750;2022-11-18T09:29:08;40.75;;;15.15;;
67041;SDS011;53949;47.790;18.750;2022-11-18T09:35:15;28.83;;;13.40;;
67041;SDS011;53949;47.790;18.750;2022-11-18T09:38:19;29.83;;;14.50;;
67041;SDS011;53949;47.790;18.750;2022-11-18T09:48:26;31.02;;;12.73;;
67041;SDS011;53949;47.790;18.750;2022-11-18T09:51:50;29.52;;;15.38;;
67041;SDS011;53949;47.790;18.750;2022-11-18T09:54:53;31.90;;;13.77;;
67041;SDS011;53949;47.790;18.750;2022-11-18T09:57:58;25.77;;;12.63;;
67041;SDS011;53949;47.790;18.750;2022-11-18T10:01:02;30.17;;;13.30;;
67041;SDS011;53949;47.790;18.750;2022-11-18T10:04:11;27.30;;;12.70;;
67041;SDS011;53949;47.790;18.750;2022-11-18T10:07:20;28.25;;;12.70;;
67041;SDS011;53949;47.790;18.750;2022-11-18T10:10:40;31.00;;;12.80;;
67041;SDS011;53949;47.790;18.750;2022-11-18T10:27:10;25.95;;;13.23;;
67041;SDS011;53949;47.790;18.750;2022-11-18T10:30:16;28.10;;;13.23;;
67041;SDS011;53949;47.790;18.750;2022-11-18T10:33:27;34.00;;;13.60;;
67041;SDS011;53949;47.790;18.750;2022-11-18T10:36:32;35.20;;;13.35;;
67041;SDS011;53949;47.790;18.750;2022-11-18T10:39:47;33.30;;;13.62;;
67041;SDS011;53949;47.790;18.750;2022-11-18T10:42:52;28.55;;;12.73;;
67041;SDS011;53949;47.790;18.750;2022-11-18T10:45:55;26.45;;;12.73;;
67041;SDS011;53949;47.790;18.750;2022-11-18T10:52:13;27.48;;;11.73;;
67041;SDS011;53949;47.790;18.750;2022-11-18T10:55:18;33.83;;;13.32;;
67041;SDS011;53949;47.790;18.750;2022-11-18T10:58:23;28.75;;;13.23;;
67041;SDS011;53949;47.790;18.750;2022-11-18T11:01:26;53.28;;;14.75;;
67041;SDS011;53949;47.790;18.750;2022-11-18T11:04:29;28.70;;;13.02;;
67041;SDS011;53949;47.790;18.750;2022-11-18T11:07:33;38.03;;;14.35;;
67041;SDS011;53949;47.790;18.750;2022-11-18T11:10:37;35.00;;;15.05;;
67041;SDS011;53949;47.790;18.750;2022-11-18T11:13:40;31.05;;;13.55;;
67041;SDS011;53949;47.790;18.750;2022-11-18T11:17:07;28.48;;;12.93;;
67041;SDS011;53949;47.790;18.750;2022-11-18T11:20:20;27.17;;;14.40;;
67041;SDS011;53949;47.790;18.750;2022-11-18T11:23:25;28.20;;;14.07;;
67041;SDS011;53949;47.790;18.750;2022-11-18T11:26:32;35.42;;;15.05;;
67041;SDS011;53949;47.790;18.750;2022-11-18T11:30:04;71.60;;;17.30;;
67041;SDS011;53949;47.790;18.750;2022-11-18T11:33:25;38.13;;;15.40;;
67041;SDS011;53949;47.790;18.750;2022-11-18T11:36:49;78.55;;;18.27;;
67041;SDS011;53949;47.790;18.750;2022-11-18T11:46:49;28.92;;;13.02;;
67041;SDS011;53949;47.790;18.750;2022-11-18T11:50:24;53.42;;;14.48;;
67041;SDS011;53949;47.790;18.750;2022-11-18T12:03:35;28.27;;;13.55;;
67041;SDS011;53949;47.790;18.750;2022-11-18T12:06:54;26.35;;;14.87;;
67041;SDS011;53949;47.790;18.750;2022-11-18T12:10:05;29.70;;;15.38;;
67041;SDS011;53949;47.790;18.750;2022-11-18T12:17:03;33.42;;;14.90;;
67041;SDS011;53949;47.790;18.750;2022-11-18T12:24:02;38.67;;;16.12;;
67041;SDS011;53949;47.790;18.750;2022-11-18T12:30:41;26.83;;;14.35;;
67041;SDS011;53949;47.790;18.750;2022-11-18T12:36:53;26.40;;;14.13;;
67041;SDS011;53949;47.790;18.750;2022-11-18T12:39:58;35.75;;;15.27;;
67041;SDS011;53949;47.790;18.750;2022-11-18T12:43:04;30.80;;;14.95;;
67041;SDS011;53949;47.790;18.750;2022-11-18T12:56:23;55.67;;;13.90;;
67041;SDS011;53949;47.790;18.750;2022-11-18T12:59:30;55.75;;;29.45;;
67041;SDS011;53949;47.790;18.750;2022-11-18T13:02:34;35.42;;;13.02;;
67041;SDS011;53949;47.790;18.750;2022-11-18T13:05:37;30.33;;;13.45;;
67041;SDS011;53949;47.790;18.750;2022-11-18T13:08:42;32.70;;;13.40;;
67041;SDS011;53949;47.790;18.750;2022-11-18T13:11:49;30.85;;;13.65;;
67041;SDS011;53949;47.790;18.750;2022-11-18T13:14:55;34.15;;;14.77;;
67041;SDS011;53949;47.790;18.750;2022-11-18T13:18:19;34.45;;;13.45;;
67041;SDS011;53949;47.790;18.750;2022-11-18T13:21:27;26.20;;;13.45;;
67041;SDS011;53949;47.790;18.750;2022-11-18T13:24:50;31.62;;;13.27;;
67041;SDS011;53949;47.790;18.750;2022-11-18T13:31:07;26.77;;;12.70;;
67041;SDS011;53949;47.790;18.750;2022-11-18T13:34:25;30.52;;;13.30;;
67041;SDS011;53949;47.790;18.750;2022-11-18T13:37:30;25.73;;;12.32;;
67041;SDS011;53949;47.790;18.750;2022-11-18T13:40:42;28.02;;;13.27;;
67041;SDS011;53949;47.790;18.750;2022-11-18T13:44:10;31.52;;;12.68;;
67041;SDS011;53949;47.790;18.750;2022-11-18T13:53:39;27.73;;;12.63;;
67041;SDS011;53949;47.790;18.750;2022-11-18T13:56:43;26.73;;;13.32;;
67041;SDS011;53949;47.790;18.750;2022-11-18T14:09:36;29.10;;;12.73;;
67041;SDS011;53949;47.790;18.750;2022-11-18T14:12:39;29.67;;;13.90;;
67041;SDS011;53949;47.790;18.750;2022-11-18T14:15:42;29.42;;;13.35;;
67041;SDS011;53949;47.790;18.750;2022-11-18T14:18:46;33.60;;;15.80;;
67041;SDS011;53949;47.790;18.750;2022-11-18T14:21:51;39.75;;;17.60;;
67041;SDS011;53949;47.790;18.750;2022-11-18T14:24:55;34.92;;;16.58;;
67041;SDS011;53949;47.790;18.750;2022-11-18T14:28:16;30.10;;;15.35;;
67041;SDS011;53949;47.790;18.750;2022-11-18T14:34:29;39.83;;;18.52;;
67041;SDS011;53949;47.790;18.750;2022-11-18T14:37:33;37.72;;;18.10;;
67041;SDS011;53949;47.790;18.750;2022-11-18T14:40:36;37.65;;;18.00;;
67041;SDS011;53949;47.790;18.750;2022-11-18T14:43:39;39.80;;;18.60;;
67041;SDS011;53949;47.790;18.750;2022-11-18T14:46:43;43.67;;;20.15;;
67041;SDS011;53949;47.790;18.750;2022-11-18T14:49:54;39.47;;;16.75;;
67041;SDS011;53949;47.790;18.750;2022-11-18T14:52:57;41.78;;;18.00;;
67041;SDS011;53949;47.790;18.750;2022-11-18T14:56:01;36.30;;;18.30;;
67041;SDS011;53949;47.790;18.750;2022-11-18T14:59:03;41.50;;;18.80;;
67041;SDS011;53949;47.790;18.750;2022-11-18T15:02:11;39.08;;;17.00;;
67041;SDS011;53949;47.790;18.750;2022-11-18T15:05:16;41.90;;;19.08;;
67041;SDS011;53949;47.790;18.750;2022-11-18T15:08:19;42.95;;;18.95;;
67041;SDS011;53949;47.790;18.750;2022-11-18T15:11:22;40.12;;;19.12;;
67041;SDS011;53949;47.790;18.750;2022-11-18T15:14:26;39.63;;;17.58;;
67041;SDS011;53949;47.790;18.750;2022-11-18T15:17:29;37.75;;;17.73;;
67041;SDS011;53949;47.790;18.750;2022-11-18T15:20:33;40.53;;;18.95;;
67041;SDS011;53949;47.790;18.750;2022-11-18T15:23:35;38.20;;;17.98;;
67041;SDS011;53949;47.790;18.750;2022-11-18T15:26:41;39.65;;;17.98;;
67041;SDS011;53949;47.790;18.750;2022-11-18T15:29:46;39.75;;;17.80;;
67041;SDS011;53949;47.790;18.750;2022-11-18T15:32:51;46.67;;;21.92;;
67041;SDS011;53949;47.790;18.750;2022-11-18T15:35:56;43.47;;;19.45;;
67041;SDS011;53949;47.790;18.750;2022-11-18T15:39:01;38.90;;;17.73;;
67041;SDS011;53949;47.790;18.750;2022-11-18T15:42:03;46.10;;;18.30;;
67041;SDS011;53949;47.790;18.750;2022-11-18T15:45:07;43.63;;;18.52;;
67041;SDS011;53949;47.790;18.750;2022-11-18T15:48:10;44.35;;;18.15;;
67041;SDS011;53949;47.790;18.750;2022-11-18T15:51:14;42.42;;;19.45;;
67041;SDS011;53949;47.790;18.750;2022-11-18T15:54:17;39.92;;;17.67;;
67041;SDS011;53949;47.790;18.750;2022-11-18T15:57:21;38.87;;;17.30;;
67041;SDS011;53949;47.790;18.750;2022-11-18T16:00:24;41.60;;;19.27;;
67041;SDS011;53949;47.790;18.750;2022-11-18T16:03:27;41.65;;;19.23;;
67041;SDS011;53949;47.790;18.750;2022-11-18T16:06:30;39.45;;;18.10;;
67041;SDS011;53949;47.790;18.750;2022-11-18T16:09:33;43.53;;;19.17;;
67041;SDS011;53949;47.790;18.750;2022-11-18T16:12:54;47.05;;;18.08;;
67041;SDS011;53949;47.790;18.750;2022-11-18T16:15:57;38.65;;;17.50;;
67041;SDS011;53949;47.790;18.750;2022-11-18T16:19:02;43.38;;;18.60;;
67041;SDS011;53949;47.790;18.750;2022-11-18T16:22:06;38.72;;;18.87;;
67041;SDS011;53949;47.790;18.750;2022-11-18T16:25:09;41.25;;;18.52;;
67041;SDS011;53949;47.790;18.750;2022-11-18T16:28:13;41.33;;;17.87;;
67041;SDS011;53949;47.790;18.750;2022-11-18T16:31:16;36.85;;;17.00;;
67041;SDS011;53949;47.790;18.750;2022-11-18T16:34:38;42.22;;;19.50;;
67041;SDS011;53949;47.790;18.750;2022-11-18T16:37:42;48.20;;;20.30;;
67041;SDS011;53949;47.790;18.750;2022-11-18T16:40:45;45.75;;;19.83;;
67041;SDS011;53949;47.790;18.750;2022-11-18T16:43:48;41.42;;;18.40;;
67041;SDS011;53949;47.790;18.750;2022-11-18T16:46:53;42.70;;;18.23;;
67041;SDS011;53949;47.790;18.750;2022-11-18T16:49:57;40.47;;;18.17;;
67041;SDS011;53949;47.790;18.750;2022-11-18T16:53:00;41.72;;;19.20;;
67041;SDS011;53949;47.790;18.750;2022-11-18T16:56:03;42.15;;;18.30;;
67041;SDS011;53949;47.790;18.750;2022-11-18T16:59:13;35.88;;;18.08;;
67041;SDS011;53949;47.790;18.750;2022-11-18T17:02:20;45.72;;;20.45;;
67041;SDS011;53949;47.790;18.750;2022-11-18T17:05:24;39.80;;;19.40;;
67041;SDS011;53949;47.790;18.750;2022-11-18T17:08:26;42.15;;;18.58;;
67041;SDS011;53949;47.790;18.750;2022-11-18T17:11:30;40.95;;;19.33;;
67041;SDS011;53949;47.790;18.750;2022-11-18T17:14:33;41.95;;;18.27;;
67041;SDS011;53949;47.790;18.750;2022-11-18T17:17:39;36.00;;;16.48;;
67041;SDS011;53949;47.790;18.750;2022-11-18T17:20:43;37.15;;;17.20;;
67041;SDS011;53949;47.790;18.750;2022-11-18T17:23:47;37.63;;;16.75;;
67041;SDS011;53949;47.790;18.750;2022-11-18T17:26:52;41.40;;;18.43;;
67041;SDS011;53949;47.790;18.750;2022-11-18T17:33:00;34.72;;;17.40;;
67041;SDS011;53949;47.790;18.750;2022-11-18T17:36:05;38.70;;;18.90;;
67041;SDS011;53949;47.790;18.750;2022-11-18T17:39:11;34.17;;;16.62;;
67041;SDS011;53949;47.790;18.750;2022-11-18T17:42:16;31.80;;;14.23;;
67041;SDS011;53949;47.790;18.750;2022-11-18T17:45:21;37.58;;;18.73;;
67041;SDS011;53949;47.790;18.750;2022-11-18T17:48:26;41.10;;;20.80;;
67041;SDS011;53949;47.790;18.750;2022-11-18T17:51:30;40.12;;;17.95;;
67041;SDS011;53949;47.790;18.750;2022-11-18T17:54:34;40.42;;;19.37;;
67041;SDS011;53949;47.790;18.750;2022-11-18T17:57:36;38.97;;;18.70;;
67041;SDS011;53949;47.790;18.750;2022-11-18T18:00:41;42.78;;;19.17;;
67041;SDS011;53949;47.790;18.750;2022-11-18T18:03:44;43.00;;;21.20;;
67041;SDS011;53949;47.790;18.750;2022-11-18T18:06:48;41.47;;;19.62;;
67041;SDS011;53949;47.790;18.750;2022-11-18T18:09:53;41.00;;;19.92;;
67041;SDS011;53949;47.790;18.750;2022-11-18T18:12:57;39.17;;;19.02;;
67041;SDS011;53949;47.790;18.750;2022-11-18T18:16:20;36.27;;;17.80;;
67041;SDS011;53949;47.790;18.750;2022-11-18T18:19:24;37.40;;;17.08;;
67041;SDS011;53949;47.790;18.750;2022-11-18T18:22:29;33.10;;;17.20;;
67041;SDS011;53949;47.790;18.750;2022-11-18T18:25:32;35.45;;;17.17;;
67041;SDS011;53949;47.790;18.750;2022-11-18T18:28:36;37.50;;;17.23;;
67041;SDS011;53949;47.790;18.750;2022-11-18T18:31:41;34.67;;;16.83;;
67041;SDS011;53949;47.790;18.750;2022-11-18T18:34:45;35.88;;;15.68;;
67041;SDS011;53949;47.790;18.750;2022-11-18T18:37:49;32.80;;;15.75;;
67041;SDS011;53949;47.790;18.750;2022-11-18T18:40:52;26.95;;;14.30;;
67041;SDS011;53949;47.790;18.750;2022-11-18T18:43:56;30.85;;;13.98;;
67041;SDS011;53949;47.790;18.750;2022-11-18T18:47:00;27.67;;;15.10;;
67041;SDS011;53949;47.790;18.750;2022-11-18T18:50:03;33.45;;;15.32;;
67041;SDS011;53949;47.790;18.750;2022-11-18T18:53:06;27.05;;;14.40;;
67041;SDS011;53949;47.790;18.750;2022-11-18T18:56:10;26.05;;;14.45;;
67041;SDS011;53949;47.790;18.750;2022-11-18T18:59:13;28.20;;;14.95;;
67041;SDS011;53949;47.790;18.750;2022-11-18T19:02:16;27.00;;;14.25;;
67041;SDS011;53949;47.790;18.750;2022-11-18T19:05:21;26.20;;;12.98;;
67041;SDS011;53949;47.790;18.750;2022-11-18T19:08:45;24.42;;;13.02;;
67041;SDS011;53949;47.790;18.750;2022-11-18T19:15:12;18.20;;;10.65;;
67041;SDS011;53949;47.790;18.750;2022-11-18T19:18:23;19.02;;;10.68;;
67041;SDS011;53949;47.790;18.750;2022-11-18T19:21:27;23.85;;;10.95;;
67041;SDS011;53949;47.790;18.750;2022-11-18T19:24:32;13.52;;;8.13;;
67041;SDS011;53949;47.790;18.750;2022-11-18T19:27:50;16.15;;;9.65;;
67041;SDS011;53949;47.790;18.750;2022-11-18T19:30:54;16.58;;;8.93;;
67041;SDS011;53949;47.790;18.750;2022-11-18T19:33:57;11.88;;;6.80;;
67041;SDS011;53949;47.790;18.750;2022-11-18T19:37:01;15.93;;;9.73;;
67041;SDS011;53949;47.790;18.750;2022-11-18T19:40:04;14.20;;;7.72;;
67041;SDS011;53949;47.790;18.750;2022-11-18T19:43:12;11.95;;;6.85;;
67041;SDS011;53949;47.790;18.750;2022-11-18T19:46:15;9.98;;;6.43;;
67041;SDS011;53949;47.790;18.750;2022-11-18T19:49:19;8.15;;;5.15;;
67041;SDS011;53949;47.790;18.750;2022-11-18T19:52:24;10.70;;;5.35;;
67041;SDS011;53949;47.790;18.750;2022-11-18T19:55:27;7.10;;;4.90;;